sensor_id;sensor_type;location;lat;lon;timestamp;temperature;humidity
516;DHT22;244;48.508;9.052;2023-04-03T00:00:12;6.90;13.10
516;DHT22;244;48.508;9.052;2023-04-03T00:02:39;6.90;12.90
516;DHT22;244;48.508;9.052;2023-04-03T00:05:07;6.90;12.70
516;DHT22;244;48.508;9.052;2023-04-03T00:07:35;6.90;12.80
516;DHT22;244;48.508;9.052;2023-04-03T00:10:03;6.80;12.60
516;DHT22;244;48.508;9.052;2023-04-03T00:12:30;6.80;12.40
516;DHT22;244;48.508;9.052;2023-04-03T00:14:57;6.80;12.40
516;DHT22;244;48.508;9.052;2023-04-03T00:17:24;6.70;12.30
516;DHT22;244;48.508;9.052;2023-04-03T00:19:51;6.70;12.30
516;DHT22;244;48.508;9.052;2023-04-03T00:22:18;6.70;12.40
516;DHT22;244;48.508;9.052;2023-04-03T00:24:46;6.70;12.50
516;DHT22;244;48.508;9.052;2023-04-03T00:27:13;6.70;12.40
516;DHT22;244;48.508;9.052;2023-04-03T00:29:41;6.60;12.20
516;DHT22;244;48.508;9.052;2023-04-03T00:32:08;6.60;12.10
516;DHT22;244;48.508;9.052;2023-04-03T00:34:34;6.60;12.10
516;DHT22;244;48.508;9.052;2023-04-03T00:37:01;6.60;12.10
516;DHT22;244;48.508;9.052;2023-04-03T00:39:28;6.50;12.00
516;DHT22;244;48.508;9.052;2023-04-03T00:41:56;6.50;12.00
516;DHT22;244;48.508;9.052;2023-04-03T00:47:30;6.50;12.00
516;DHT22;244;48.508;9.052;2023-04-03T00:49:57;6.50;12.00
516;DHT22;244;48.508;9.052;2023-04-03T00:52:28;6.50;12.70
516;DHT22;244;48.508;9.052;2023-04-03T00:54:59;6.50;12.10
516;DHT22;244;48.508;9.052;2023-04-03T00:57:29;6.50;12.00
516;DHT22;244;48.508;9.052;2023-04-03T00:59:59;6.50;12.00
516;DHT22;244;48.508;9.052;2023-04-03T01:02:28;6.50;12.00
516;DHT22;244;48.508;9.052;2023-04-03T01:04:55;6.50;12.60
516;DHT22;244;48.508;9.052;2023-04-03T01:07:24;6.50;12.00
516;DHT22;244;48.508;9.052;2023-04-03T01:09:56;6.50;11.90
516;DHT22;244;48.508;9.052;2023-04-03T01:12:24;6.50;12.50
516;DHT22;244;48.508;9.052;2023-04-03T01:14:54;6.50;11.80
516;DHT22;244;48.508;9.052;2023-04-03T01:17:29;6.50;11.80
516;DHT22;244;48.508;9.052;2023-04-03T01:20:13;6.50;11.80
516;DHT22;244;48.508;9.052;2023-04-03T01:22:45;6.50;11.80
516;DHT22;244;48.508;9.052;2023-04-03T01:25:16;6.50;11.80
516;DHT22;244;48.508;9.052;2023-04-03T01:27:42;6.40;11.70
516;DHT22;244;48.508;9.052;2023-04-03T01:30:13;6.50;11.80
516;DHT22;244;48.508;9.052;2023-04-03T01:32:42;6.50;11.80
516;DHT22;244;48.508;9.052;2023-04-03T01:35:10;6.50;11.80
516;DHT22;244;48.508;9.052;2023-04-03T01:37:37;6.50;11.80
516;DHT22;244;48.508;9.052;2023-04-03T01:40:05;6.40;12.30
516;DHT22;244;48.508;9.052;2023-04-03T01:42:33;6.40;11.80
516;DHT22;244;48.508;9.052;2023-04-03T01:45:00;6.50;11.80
516;DHT22;244;48.508;9.052;2023-04-03T01:47:27;6.50;11.70
516;DHT22;244;48.508;9.052;2023-04-03T01:49:55;6.50;11.70
516;DHT22;244;48.508;9.052;2023-04-03T01:52:22;6.40;11.70
516;DHT22;244;48.508;9.052;2023-04-03T01:54:49;6.40;11.60
516;DHT22;244;48.508;9.052;2023-04-03T01:57:17;6.40;12.30
516;DHT22;244;48.508;9.052;2023-04-03T01:59:44;6.40;11.70
516;DHT22;244;48.508;9.052;2023-04-03T02:02:10;6.40;11.70
516;DHT22;244;48.508;9.052;2023-04-03T02:04:40;6.40;11.60
516;DHT22;244;48.508;9.052;2023-04-03T02:07:08;6.30;11.60
516;DHT22;244;48.508;9.052;2023-04-03T02:09:35;6.30;11.70
516;DHT22;244;48.508;9.052;2023-04-03T02:12:02;6.30;12.20
516;DHT22;244;48.508;9.052;2023-04-03T02:14:29;6.30;11.60
516;DHT22;244;48.508;9.052;2023-04-03T02:16:56;6.20;11.60
516;DHT22;244;48.508;9.052;2023-04-03T02:19:23;6.20;11.70
516;DHT22;244;48.508;9.052;2023-04-03T02:21:50;6.20;11.70
516;DHT22;244;48.508;9.052;2023-04-03T02:24:18;6.20;11.70
516;DHT22;244;48.508;9.052;2023-04-03T02:26:45;6.20;11.70
516;DHT22;244;48.508;9.052;2023-04-03T02:29:12;6.20;11.70
516;DHT22;244;48.508;9.052;2023-04-03T02:31:39;6.10;11.60
516;DHT22;244;48.508;9.052;2023-04-03T02:34:06;6.10;11.70
516;DHT22;244;48.508;9.052;2023-04-03T02:36:33;6.10;11.60
516;DHT22;244;48.508;9.052;2023-04-03T02:38:59;6.10;11.70
516;DHT22;244;48.508;9.052;2023-04-03T02:41:28;6.20;11.70
516;DHT22;244;48.508;9.052;2023-04-03T02:44:00;6.20;11.70
516;DHT22;244;48.508;9.052;2023-04-03T02:46:27;6.10;11.50
516;DHT22;244;48.508;9.052;2023-04-03T02:48:54;6.10;11.40
516;DHT22;244;48.508;9.052;2023-04-03T02:51:21;6.10;11.40
516;DHT22;244;48.508;9.052;2023-04-03T02:53:48;6.10;11.30
516;DHT22;244;48.508;9.052;2023-04-03T02:56:15;6.10;11.30
516;DHT22;244;48.508;9.052;2023-04-03T02:58:44;6.10;11.30
516;DHT22;244;48.508;9.052;2023-04-03T03:01:11;6.10;11.10
516;DHT22;244;48.508;9.052;2023-04-03T03:03:38;6.10;11.10
516;DHT22;244;48.508;9.052;2023-04-03T03:06:07;6.10;11.00
516;DHT22;244;48.508;9.052;2023-04-03T03:08:35;6.10;11.10
516;DHT22;244;48.508;9.052;2023-04-03T03:11:02;6.10;11.10
516;DHT22;244;48.508;9.052;2023-04-03T03:13:30;6.10;11.00
516;DHT22;244;48.508;9.052;2023-04-03T03:15:58;6.10;11.00
516;DHT22;244;48.508;9.052;2023-04-03T03:18:26;6.00;10.80
516;DHT22;244;48.508;9.052;2023-04-03T03:20:53;6.00;10.80
516;DHT22;244;48.508;9.052;2023-04-03T03:23:22;6.00;10.80
516;DHT22;244;48.508;9.052;2023-04-03T03:25:49;6.00;10.80
516;DHT22;244;48.508;9.052;2023-04-03T03:28:16;6.00;10.90
516;DHT22;244;48.508;9.052;2023-04-03T03:30:42;6.00;10.90
516;DHT22;244;48.508;9.052;2023-04-03T03:33:11;6.00;10.90
516;DHT22;244;48.508;9.052;2023-04-03T03:35:40;6.00;10.90
516;DHT22;244;48.508;9.052;2023-04-03T03:38:07;6.00;10.90
516;DHT22;244;48.508;9.052;2023-04-03T03:40:34;6.00;10.90
516;DHT22;244;48.508;9.052;2023-04-03T03:43:01;6.00;11.00
516;DHT22;244;48.508;9.052;2023-04-03T03:47:55;6.00;11.00
516;DHT22;244;48.508;9.052;2023-04-03T03:50:23;6.00;11.00
516;DHT22;244;48.508;9.052;2023-04-03T03:52:50;6.00;10.90
516;DHT22;244;48.508;9.052;2023-04-03T03:55:17;6.00;10.80
516;DHT22;244;48.508;9.052;2023-04-03T03:57:44;6.00;10.80
516;DHT22;244;48.508;9.052;2023-04-03T04:00:11;6.00;10.80
516;DHT22;244;48.508;9.052;2023-04-03T04:02:38;6.00;10.80
516;DHT22;244;48.508;9.052;2023-04-03T04:05:06;6.00;10.70
516;DHT22;244;48.508;9.052;2023-04-03T04:07:34;6.00;10.80
516;DHT22;244;48.508;9.052;2023-04-03T04:10:02;6.00;10.80
516;DHT22;244;48.508;9.052;2023-04-03T04:12:29;5.90;10.70
516;DHT22;244;48.508;9.052;2023-04-03T04:14:55;5.90;11.40
516;DHT22;244;48.508;9.052;2023-04-03T04:17:22;5.90;10.80
516;DHT22;244;48.508;9.052;2023-04-03T04:19:49;5.90;10.80
516;DHT22;244;48.508;9.052;2023-04-03T04:22:16;5.80;10.70
516;DHT22;244;48.508;9.052;2023-04-03T04:24:44;5.80;10.80
516;DHT22;244;48.508;9.052;2023-04-03T04:27:11;5.80;10.80
516;DHT22;244;48.508;9.052;2023-04-03T04:29:38;5.80;10.80
516;DHT22;244;48.508;9.052;2023-04-03T04:32:05;5.70;11.40
516;DHT22;244;48.508;9.052;2023-04-03T04:34:32;5.70;10.80
516;DHT22;244;48.508;9.052;2023-04-03T04:36:59;5.70;10.90
516;DHT22;244;48.508;9.052;2023-04-03T04:39:26;5.70;10.90
516;DHT22;244;48.508;9.052;2023-04-03T04:41:54;5.70;10.90
516;DHT22;244;48.508;9.052;2023-04-03T04:44:21;5.70;10.90
516;DHT22;244;48.508;9.052;2023-04-03T04:46:48;5.70;11.00
516;DHT22;244;48.508;9.052;2023-04-03T04:49:14;5.70;11.00
516;DHT22;244;48.508;9.052;2023-04-03T04:51:41;5.70;11.10
516;DHT22;244;48.508;9.052;2023-04-03T04:54:08;5.70;11.70
516;DHT22;244;48.508;9.052;2023-04-03T04:56:35;5.70;11.20
516;DHT22;244;48.508;9.052;2023-04-03T04:59:03;5.70;11.80
516;DHT22;244;48.508;9.052;2023-04-03T05:01:30;5.80;11.20
516;DHT22;244;48.508;9.052;2023-04-03T05:03:57;5.80;11.20
516;DHT22;244;48.508;9.052;2023-04-03T05:06:24;5.80;11.80
516;DHT22;244;48.508;9.052;2023-04-03T05:08:51;5.80;11.20
516;DHT22;244;48.508;9.052;2023-04-03T05:11:18;5.90;11.20
516;DHT22;244;48.508;9.052;2023-04-03T05:13:45;5.90;11.10
516;DHT22;244;48.508;9.052;2023-04-03T05:16:14;5.90;11.10
516;DHT22;244;48.508;9.052;2023-04-03T05:18:41;5.90;11.10
516;DHT22;244;48.508;9.052;2023-04-03T05:21:07;5.90;11.00
516;DHT22;244;48.508;9.052;2023-04-03T05:23:34;5.90;10.80
516;DHT22;244;48.508;9.052;2023-04-03T05:26:01;5.90;10.70
516;DHT22;244;48.508;9.052;2023-04-03T05:28:28;5.90;10.70
516;DHT22;244;48.508;9.052;2023-04-03T05:30:57;5.90;11.20
516;DHT22;244;48.508;9.052;2023-04-03T05:33:26;6.00;11.10
516;DHT22;244;48.508;9.052;2023-04-03T05:35:53;6.00;11.00
516;DHT22;244;48.508;9.052;2023-04-03T05:38:20;6.00;10.30
516;DHT22;244;48.508;9.052;2023-04-03T05:40:47;6.00;10.00
516;DHT22;244;48.508;9.052;2023-04-03T05:43:14;6.00;9.90
516;DHT22;244;48.508;9.052;2023-04-03T05:45:41;6.00;9.60
516;DHT22;244;48.508;9.052;2023-04-03T05:48:09;6.10;9.50
516;DHT22;244;48.508;9.052;2023-04-03T05:50:37;6.10;9.20
516;DHT22;244;48.508;9.052;2023-04-03T05:53:07;6.10;8.80
516;DHT22;244;48.508;9.052;2023-04-03T05:55:39;6.10;8.70
516;DHT22;244;48.508;9.052;2023-04-03T05:58:06;6.20;9.40
516;DHT22;244;48.508;9.052;2023-04-03T06:00:33;6.20;8.30
516;DHT22;244;48.508;9.052;2023-04-03T06:03:00;6.20;8.10
516;DHT22;244;48.508;9.052;2023-04-03T06:05:27;6.30;8.00
516;DHT22;244;48.508;9.052;2023-04-03T06:07:55;6.30;7.80
516;DHT22;244;48.508;9.052;2023-04-03T06:10:22;6.30;7.70
516;DHT22;244;48.508;9.052;2023-04-03T06:12:49;6.40;7.60
516;DHT22;244;48.508;9.052;2023-04-03T06:15:16;6.40;7.60
516;DHT22;244;48.508;9.052;2023-04-03T06:17:43;6.50;7.50
516;DHT22;244;48.508;9.052;2023-04-03T06:20:11;6.50;7.50
516;DHT22;244;48.508;9.052;2023-04-03T06:22:39;6.60;7.50
516;DHT22;244;48.508;9.052;2023-04-03T06:25:09;6.70;7.20
516;DHT22;244;48.508;9.052;2023-04-03T06:27:36;6.70;6.90
516;DHT22;244;48.508;9.052;2023-04-03T06:30:04;6.70;6.70
516;DHT22;244;48.508;9.052;2023-04-03T06:32:31;6.80;6.20
516;DHT22;244;48.508;9.052;2023-04-03T06:34:58;6.80;6.20
516;DHT22;244;48.508;9.052;2023-04-03T06:37:25;6.90;6.20
516;DHT22;244;48.508;9.052;2023-04-03T06:39:54;6.90;5.90
516;DHT22;244;48.508;9.052;2023-04-03T06:42:23;7.00;5.30
516;DHT22;244;48.508;9.052;2023-04-03T06:44:50;6.90;5.30
516;DHT22;244;48.508;9.052;2023-04-03T06:47:19;7.00;4.80
516;DHT22;244;48.508;9.052;2023-04-03T06:49:46;7.00;4.80
516;DHT22;244;48.508;9.052;2023-04-03T06:52:13;7.00;4.80
516;DHT22;244;48.508;9.052;2023-04-03T06:54:40;7.00;4.80
516;DHT22;244;48.508;9.052;2023-04-03T06:57:08;7.00;4.80
516;DHT22;244;48.508;9.052;2023-04-03T06:59:36;7.00;4.70
516;DHT22;244;48.508;9.052;2023-04-03T07:02:03;7.00;4.80
516;DHT22;244;48.508;9.052;2023-04-03T07:04:30;7.00;4.80
516;DHT22;244;48.508;9.052;2023-04-03T07:06:57;7.10;4.80
516;DHT22;244;48.508;9.052;2023-04-03T07:09:24;7.20;4.70
516;DHT22;244;48.508;9.052;2023-04-03T07:11:51;7.20;4.60
516;DHT22;244;48.508;9.052;2023-04-03T07:14:18;7.20;4.50
516;DHT22;244;48.508;9.052;2023-04-03T07:16:46;7.20;4.30
516;DHT22;244;48.508;9.052;2023-04-03T07:19:13;7.20;4.40
516;DHT22;244;48.508;9.052;2023-04-03T07:21:40;7.30;4.40
516;DHT22;244;48.508;9.052;2023-04-03T07:24:08;7.30;4.30
516;DHT22;244;48.508;9.052;2023-04-03T07:26:36;7.40;4.20
516;DHT22;244;48.508;9.052;2023-04-03T07:29:03;7.50;4.20
516;DHT22;244;48.508;9.052;2023-04-03T07:31:29;7.60;4.10
516;DHT22;244;48.508;9.052;2023-04-03T07:33:58;7.70;4.20
516;DHT22;244;48.508;9.052;2023-04-03T07:36:25;7.80;4.10
516;DHT22;244;48.508;9.052;2023-04-03T07:38:52;7.90;4.00
516;DHT22;244;48.508;9.052;2023-04-03T07:41:19;8.00;3.90
516;DHT22;244;48.508;9.052;2023-04-03T07:43:48;8.20;3.50
516;DHT22;244;48.508;9.052;2023-04-03T07:46:15;8.30;3.40
516;DHT22;244;48.508;9.052;2023-04-03T07:48:43;8.40;2.70
516;DHT22;244;48.508;9.052;2023-04-03T07:51:12;8.40;2.50
516;DHT22;244;48.508;9.052;2023-04-03T07:53:40;8.40;2.00
516;DHT22;244;48.508;9.052;2023-04-03T07:56:07;8.30;2.00
516;DHT22;244;48.508;9.052;2023-04-03T07:58:34;8.30;2.10
516;DHT22;244;48.508;9.052;2023-04-03T08:01:01;8.40;2.30
516;DHT22;244;48.508;9.052;2023-04-03T08:03:28;8.50;2.40
516;DHT22;244;48.508;9.052;2023-04-03T08:06:02;8.60;2.30
516;DHT22;244;48.508;9.052;2023-04-03T08:08:31;8.70;2.30
516;DHT22;244;48.508;9.052;2023-04-03T08:10:59;8.80;2.10
516;DHT22;244;48.508;9.052;2023-04-03T08:13:26;8.90;1.70
516;DHT22;244;48.508;9.052;2023-04-03T08:15:53;8.90;1.40
516;DHT22;244;48.508;9.052;2023-04-03T08:18:23;8.90;1.40
516;DHT22;244;48.508;9.052;2023-04-03T08:20:51;8.90;1.40
516;DHT22;244;48.508;9.052;2023-04-03T08:23:18;8.90;1.40
516;DHT22;244;48.508;9.052;2023-04-03T08:25:47;8.80;1.40
516;DHT22;244;48.508;9.052;2023-04-03T08:28:14;8.80;1.60
516;DHT22;244;48.508;9.052;2023-04-03T08:30:41;8.90;1.40
516;DHT22;244;48.508;9.052;2023-04-03T08:33:09;8.90;1.40
516;DHT22;244;48.508;9.052;2023-04-03T08:35:39;8.90;1.40
516;DHT22;244;48.508;9.052;2023-04-03T08:38:06;9.00;1.20
516;DHT22;244;48.508;9.052;2023-04-03T08:40:33;9.00;1.70
516;DHT22;244;48.508;9.052;2023-04-03T08:43:12;9.10;1.50
516;DHT22;244;48.508;9.052;2023-04-03T08:45:46;9.20;1.60
516;DHT22;244;48.508;9.052;2023-04-03T08:48:19;9.30;1.50
516;DHT22;244;48.508;9.052;2023-04-03T08:50:48;9.40;1.70
516;DHT22;244;48.508;9.052;2023-04-03T08:53:20;9.50;1.30
516;DHT22;244;48.508;9.052;2023-04-03T08:55:49;9.60;1.00
516;DHT22;244;48.508;9.052;2023-04-03T08:58:20;9.70;1.00
516;DHT22;244;48.508;9.052;2023-04-03T09:00:49;9.70;1.00
516;DHT22;244;48.508;9.052;2023-04-03T09:03:18;9.70;1.00
516;DHT22;244;48.508;9.052;2023-04-03T09:05:49;9.90;1.00
516;DHT22;244;48.508;9.052;2023-04-03T09:08:26;10.00;1.00
516;DHT22;244;48.508;9.052;2023-04-03T09:11:01;10.10;1.00
516;DHT22;244;48.508;9.052;2023-04-03T09:13:36;10.20;1.00
516;DHT22;244;48.508;9.052;2023-04-03T09:16:16;10.30;1.00
516;DHT22;244;48.508;9.052;2023-04-03T09:18:50;10.30;1.00
516;DHT22;244;48.508;9.052;2023-04-03T09:21:22;10.20;1.00
516;DHT22;244;48.508;9.052;2023-04-03T09:23:52;10.30;1.00
516;DHT22;244;48.508;9.052;2023-04-03T09:26:23;10.30;1.00
516;DHT22;244;48.508;9.052;2023-04-03T09:28:55;10.40;1.00
516;DHT22;244;48.508;9.052;2023-04-03T09:31:25;10.40;1.00
516;DHT22;244;48.508;9.052;2023-04-03T09:33:57;10.50;1.00
516;DHT22;244;48.508;9.052;2023-04-03T09:36:42;10.50;1.00
516;DHT22;244;48.508;9.052;2023-04-03T09:39:12;10.50;1.00
516;DHT22;244;48.508;9.052;2023-04-03T09:41:41;10.60;1.00
516;DHT22;244;48.508;9.052;2023-04-03T09:44:23;10.60;1.00
516;DHT22;244;48.508;9.052;2023-04-03T09:46:51;10.60;1.00
516;DHT22;244;48.508;9.052;2023-04-03T09:49:18;10.70;1.00
516;DHT22;244;48.508;9.052;2023-04-03T09:51:46;10.70;1.00
516;DHT22;244;48.508;9.052;2023-04-03T09:54:33;10.70;1.00
516;DHT22;244;48.508;9.052;2023-04-03T09:57:07;10.70;1.00
516;DHT22;244;48.508;9.052;2023-04-03T09:59:39;10.70;1.00
516;DHT22;244;48.508;9.052;2023-04-03T10:02:28;10.80;1.00
516;DHT22;244;48.508;9.052;2023-04-03T10:04:57;10.80;1.00
516;DHT22;244;48.508;9.052;2023-04-03T10:07:31;10.80;1.00
516;DHT22;244;48.508;9.052;2023-04-03T10:09:59;10.90;1.00
516;DHT22;244;48.508;9.052;2023-04-03T10:12:28;11.00;1.00
516;DHT22;244;48.508;9.052;2023-04-03T10:14:58;11.10;1.00
516;DHT22;244;48.508;9.052;2023-04-03T10:17:36;11.10;1.00
516;DHT22;244;48.508;9.052;2023-04-03T10:20:11;11.20;1.00
516;DHT22;244;48.508;9.052;2023-04-03T10:22:47;11.20;1.00
516;DHT22;244;48.508;9.052;2023-04-03T10:25:21;11.20;1.00
516;DHT22;244;48.508;9.052;2023-04-03T10:27:56;11.10;1.00
516;DHT22;244;48.508;9.052;2023-04-03T10:30:34;11.10;1.00
516;DHT22;244;48.508;9.052;2023-04-03T10:33:20;11.20;1.00
516;DHT22;244;48.508;9.052;2023-04-03T10:35:55;11.30;1.00
516;DHT22;244;48.508;9.052;2023-04-03T10:38:33;11.20;1.00
516;DHT22;244;48.508;9.052;2023-04-03T10:41:05;11.00;1.00
516;DHT22;244;48.508;9.052;2023-04-03T10:43:39;11.00;1.00
516;DHT22;244;48.508;9.052;2023-04-03T10:46:13;10.90;1.00
516;DHT22;244;48.508;9.052;2023-04-03T10:48:55;11.00;1.00
516;DHT22;244;48.508;9.052;2023-04-03T10:51:29;11.10;1.00
516;DHT22;244;48.508;9.052;2023-04-03T10:54:04;11.20;1.00
516;DHT22;244;48.508;9.052;2023-04-03T10:56:37;11.20;1.00
516;DHT22;244;48.508;9.052;2023-04-03T10:59:17;11.20;1.00
516;DHT22;244;48.508;9.052;2023-04-03T11:01:48;11.20;1.00
516;DHT22;244;48.508;9.052;2023-04-03T11:04:18;11.20;1.00
516;DHT22;244;48.508;9.052;2023-04-03T11:06:49;11.20;1.00
516;DHT22;244;48.508;9.052;2023-04-03T11:09:22;11.10;1.00
516;DHT22;244;48.508;9.052;2023-04-03T11:11:53;11.20;1.00
516;DHT22;244;48.508;9.052;2023-04-03T11:14:29;11.20;1.00
516;DHT22;244;48.508;9.052;2023-04-03T11:17:05;11.20;1.00
516;DHT22;244;48.508;9.052;2023-04-03T11:19:38;11.20;1.00
516;DHT22;244;48.508;9.052;2023-04-03T11:22:12;11.20;1.00
516;DHT22;244;48.508;9.052;2023-04-03T11:24:54;11.20;1.00
516;DHT22;244;48.508;9.052;2023-04-03T11:27:23;11.20;1.00
516;DHT22;244;48.508;9.052;2023-04-03T11:29:52;11.10;1.00
516;DHT22;244;48.508;9.052;2023-04-03T11:32:44;11.10;1.00
516;DHT22;244;48.508;9.052;2023-04-03T11:35:15;11.20;1.00
516;DHT22;244;48.508;9.052;2023-04-03T11:37:46;11.20;1.00
516;DHT22;244;48.508;9.052;2023-04-03T11:40:22;11.30;1.00
516;DHT22;244;48.508;9.052;2023-04-03T11:42:53;11.50;1.00
516;DHT22;244;48.508;9.052;2023-04-03T11:45:31;11.50;1.00
516;DHT22;244;48.508;9.052;2023-04-03T11:48:03;11.40;1.00
516;DHT22;244;48.508;9.052;2023-04-03T11:50:44;11.40;1.00
516;DHT22;244;48.508;9.052;2023-04-03T11:53:32;11.30;1.00
516;DHT22;244;48.508;9.052;2023-04-03T11:56:26;11.20;1.00
516;DHT22;244;48.508;9.052;2023-04-03T11:59:16;11.10;1.00
516;DHT22;244;48.508;9.052;2023-04-03T12:01:49;11.00;1.00
516;DHT22;244;48.508;9.052;2023-04-03T12:04:18;11.10;1.00
516;DHT22;244;48.508;9.052;2023-04-03T12:09:58;11.10;1.00
516;DHT22;244;48.508;9.052;2023-04-03T12:12:37;11.30;1.00
516;DHT22;244;48.508;9.052;2023-04-03T12:15:23;11.40;1.00
516;DHT22;244;48.508;9.052;2023-04-03T12:17:50;11.60;1.00
516;DHT22;244;48.508;9.052;2023-04-03T12:20:57;11.70;1.00
516;DHT22;244;48.508;9.052;2023-04-03T12:23:27;11.50;1.00
516;DHT22;244;48.508;9.052;2023-04-03T12:28:42;11.50;1.00
516;DHT22;244;48.508;9.052;2023-04-03T12:31:10;11.30;1.00
516;DHT22;244;48.508;9.052;2023-04-03T12:33:51;11.20;1.00
516;DHT22;244;48.508;9.052;2023-04-03T12:36:33;11.10;1.00
516;DHT22;244;48.508;9.052;2023-04-03T12:39:24;11.00;1.00
516;DHT22;244;48.508;9.052;2023-04-03T12:41:57;11.00;1.00
516;DHT22;244;48.508;9.052;2023-04-03T12:44:37;11.00;1.00
516;DHT22;244;48.508;9.052;2023-04-03T12:47:23;11.10;1.00
516;DHT22;244;48.508;9.052;2023-04-03T12:49:52;11.10;1.00
516;DHT22;244;48.508;9.052;2023-04-03T12:52:32;11.10;1.00
516;DHT22;244;48.508;9.052;2023-04-03T12:55:00;11.10;1.00
516;DHT22;244;48.508;9.052;2023-04-03T12:57:30;11.20;1.00
516;DHT22;244;48.508;9.052;2023-04-03T12:59:58;11.30;1.00
516;DHT22;244;48.508;9.052;2023-04-03T13:02:27;11.40;1.00
516;DHT22;244;48.508;9.052;2023-04-03T13:04:56;11.40;1.00
516;DHT22;244;48.508;9.052;2023-04-03T13:07:28;11.30;1.00
516;DHT22;244;48.508;9.052;2023-04-03T13:09:59;11.40;1.00
516;DHT22;244;48.508;9.052;2023-04-03T13:12:26;11.40;1.00
516;DHT22;244;48.508;9.052;2023-04-03T13:14:55;11.50;1.00
516;DHT22;244;48.508;9.052;2023-04-03T13:17:23;11.60;1.00
516;DHT22;244;48.508;9.052;2023-04-03T13:19:51;11.80;1.00
516;DHT22;244;48.508;9.052;2023-04-03T13:22:28;11.90;1.00
516;DHT22;244;48.508;9.052;2023-04-03T13:24:59;12.00;1.00
516;DHT22;244;48.508;9.052;2023-04-03T13:27:30;12.10;1.00
516;DHT22;244;48.508;9.052;2023-04-03T13:29:59;12.20;1.00
516;DHT22;244;48.508;9.052;2023-04-03T13:32:28;12.00;1.00
516;DHT22;244;48.508;9.052;2023-04-03T13:34:56;11.90;1.00
516;DHT22;244;48.508;9.052;2023-04-03T13:37:25;11.80;1.00
516;DHT22;244;48.508;9.052;2023-04-03T13:40:08;11.80;1.00
516;DHT22;244;48.508;9.052;2023-04-03T13:42:38;11.60;1.00
516;DHT22;244;48.508;9.052;2023-04-03T13:45:19;11.50;1.00
516;DHT22;244;48.508;9.052;2023-04-03T13:47:49;11.50;1.00
516;DHT22;244;48.508;9.052;2023-04-03T13:50:18;11.40;1.00
516;DHT22;244;48.508;9.052;2023-04-03T13:52:48;11.30;1.00
516;DHT22;244;48.508;9.052;2023-04-03T13:55:21;11.30;1.00
516;DHT22;244;48.508;9.052;2023-04-03T13:57:51;11.30;1.00
516;DHT22;244;48.508;9.052;2023-04-03T14:00:29;11.30;1.00
516;DHT22;244;48.508;9.052;2023-04-03T14:02:57;11.20;1.00
516;DHT22;244;48.508;9.052;2023-04-03T14:05:24;11.30;1.00
516;DHT22;244;48.508;9.052;2023-04-03T14:07:54;11.40;1.00
516;DHT22;244;48.508;9.052;2023-04-03T14:10:23;11.50;1.00
516;DHT22;244;48.508;9.052;2023-04-03T14:12:50;11.50;1.00
516;DHT22;244;48.508;9.052;2023-04-03T14:15:20;11.40;1.00
516;DHT22;244;48.508;9.052;2023-04-03T14:17:49;11.30;1.00
516;DHT22;244;48.508;9.052;2023-04-03T14:20:20;11.30;1.00
516;DHT22;244;48.508;9.052;2023-04-03T14:22:47;11.20;1.00
516;DHT22;244;48.508;9.052;2023-04-03T14:25:15;11.20;1.00
516;DHT22;244;48.508;9.052;2023-04-03T14:27:45;11.20;1.00
516;DHT22;244;48.508;9.052;2023-04-03T14:30:15;11.10;1.00
516;DHT22;244;48.508;9.052;2023-04-03T14:32:44;11.20;1.00
516;DHT22;244;48.508;9.052;2023-04-03T14:35:12;11.20;1.00
516;DHT22;244;48.508;9.052;2023-04-03T14:37:39;11.20;1.00
516;DHT22;244;48.508;9.052;2023-04-03T14:40:08;11.20;1.00
516;DHT22;244;48.508;9.052;2023-04-03T14:42:37;11.30;1.00
516;DHT22;244;48.508;9.052;2023-04-03T14:45:08;11.30;1.00
516;DHT22;244;48.508;9.052;2023-04-03T14:47:40;11.40;1.00
516;DHT22;244;48.508;9.052;2023-04-03T14:50:13;11.40;1.00
516;DHT22;244;48.508;9.052;2023-04-03T14:52:41;11.30;1.00
516;DHT22;244;48.508;9.052;2023-04-03T14:55:08;11.10;1.00
516;DHT22;244;48.508;9.052;2023-04-03T14:57:41;11.00;1.00
516;DHT22;244;48.508;9.052;2023-04-03T15:00:17;10.90;1.00
516;DHT22;244;48.508;9.052;2023-04-03T15:02:46;10.80;1.00
516;DHT22;244;48.508;9.052;2023-04-03T15:05:18;10.70;1.00
516;DHT22;244;48.508;9.052;2023-04-03T15:07:50;10.70;1.00
516;DHT22;244;48.508;9.052;2023-04-03T15:10:24;10.60;1.00
516;DHT22;244;48.508;9.052;2023-04-03T15:12:54;10.50;1.00
516;DHT22;244;48.508;9.052;2023-04-03T15:15:28;10.40;1.00
516;DHT22;244;48.508;9.052;2023-04-03T15:17:59;10.30;1.00
516;DHT22;244;48.508;9.052;2023-04-03T15:20:27;10.20;1.00
516;DHT22;244;48.508;9.052;2023-04-03T15:22:56;10.10;1.00
516;DHT22;244;48.508;9.052;2023-04-03T15:25:26;10.10;1.00
516;DHT22;244;48.508;9.052;2023-04-03T15:27:53;10.00;1.00
516;DHT22;244;48.508;9.052;2023-04-03T15:30:22;10.00;1.00
516;DHT22;244;48.508;9.052;2023-04-03T15:32:51;10.00;1.00
516;DHT22;244;48.508;9.052;2023-04-03T15:35:18;10.10;1.00
516;DHT22;244;48.508;9.052;2023-04-03T15:37:45;10.10;1.00
516;DHT22;244;48.508;9.052;2023-04-03T15:40:14;10.20;1.00
516;DHT22;244;48.508;9.052;2023-04-03T15:42:41;10.30;1.00
516;DHT22;244;48.508;9.052;2023-04-03T15:45:08;10.40;1.00
516;DHT22;244;48.508;9.052;2023-04-03T15:47:35;10.40;1.00
516;DHT22;244;48.508;9.052;2023-04-03T15:50:05;10.30;1.00
516;DHT22;244;48.508;9.052;2023-04-03T15:52:33;10.30;1.00
516;DHT22;244;48.508;9.052;2023-04-03T15:55:00;10.20;1.00
516;DHT22;244;48.508;9.052;2023-04-03T15:57:29;10.20;1.00
516;DHT22;244;48.508;9.052;2023-04-03T15:59:58;10.10;1.00
516;DHT22;244;48.508;9.052;2023-04-03T16:02:24;10.10;1.00
516;DHT22;244;48.508;9.052;2023-04-03T16:04:53;10.00;1.00
516;DHT22;244;48.508;9.052;2023-04-03T16:07:22;10.00;1.00
516;DHT22;244;48.508;9.052;2023-04-03T16:09:49;10.00;1.00
516;DHT22;244;48.508;9.052;2023-04-03T16:12:15;10.00;1.00
516;DHT22;244;48.508;9.052;2023-04-03T16:14:42;10.00;1.00
516;DHT22;244;48.508;9.052;2023-04-03T16:17:09;10.00;1.00
516;DHT22;244;48.508;9.052;2023-04-03T16:19:36;10.00;1.00
516;DHT22;244;48.508;9.052;2023-04-03T16:22:03;10.00;1.00
516;DHT22;244;48.508;9.052;2023-04-03T16:24:31;10.00;1.00
516;DHT22;244;48.508;9.052;2023-04-03T16:26:58;9.90;1.00
516;DHT22;244;48.508;9.052;2023-04-03T16:29:25;9.90;1.00
516;DHT22;244;48.508;9.052;2023-04-03T16:31:52;10.00;1.00
516;DHT22;244;48.508;9.052;2023-04-03T16:34:19;10.10;1.00
516;DHT22;244;48.508;9.052;2023-04-03T16:36:47;10.10;1.00
516;DHT22;244;48.508;9.052;2023-04-03T16:39:13;10.10;1.00
516;DHT22;244;48.508;9.052;2023-04-03T16:41:42;10.00;1.00
516;DHT22;244;48.508;9.052;2023-04-03T16:44:08;9.90;1.00
516;DHT22;244;48.508;9.052;2023-04-03T16:46:35;9.90;1.00
516;DHT22;244;48.508;9.052;2023-04-03T16:49:03;9.70;1.00
516;DHT22;244;48.508;9.052;2023-04-03T16:51:30;9.60;1.00
516;DHT22;244;48.508;9.052;2023-04-03T16:53:57;9.50;1.00
516;DHT22;244;48.508;9.052;2023-04-03T16:56:24;9.40;1.00
516;DHT22;244;48.508;9.052;2023-04-03T16:58:53;9.40;1.00
516;DHT22;244;48.508;9.052;2023-04-03T17:01:21;9.30;1.00
516;DHT22;244;48.508;9.052;2023-04-03T17:03:57;9.20;1.00
516;DHT22;244;48.508;9.052;2023-04-03T17:06:24;9.20;1.00
516;DHT22;244;48.508;9.052;2023-04-03T17:08:59;9.20;1.00
516;DHT22;244;48.508;9.052;2023-04-03T17:11:33;9.10;1.00
516;DHT22;244;48.508;9.052;2023-04-03T17:14:04;9.00;1.00
516;DHT22;244;48.508;9.052;2023-04-03T17:16:33;8.90;1.00
516;DHT22;244;48.508;9.052;2023-04-03T17:19:00;8.90;1.00
516;DHT22;244;48.508;9.052;2023-04-03T17:21:28;8.90;1.00
516;DHT22;244;48.508;9.052;2023-04-03T17:23:57;8.80;1.00